Time;durP1;ratioP1;P1;durP2;ratioP2;P2;SDS_P1;SDS_P2;PMS_P1;PMS_P2;Temp;Humidity;BMP_temperature;BMP_pressure;BME280_temperature;BME280_humidity;BME280_pressure;Samples;Min_cycle;Max_cycle;Signal;HPM_P1;HPM_P2
2021/08/02 00:00:17;;;;;;;0.40;0.30;;;14.50;99.90;;;;;;5093417;28;20382;-75
2021/08/02 00:02:49;;;;;;;0.40;0.20;;;14.40;99.90;;;;;;5092475;28;20382;-76
2021/08/02 00:05:21;;;;;;;0.40;0.30;;;14.30;99.90;;;;;;5092830;28;20386;-76
2021/08/02 00:07:59;;;;;;;0.40;0.20;;;14.20;99.90;;;;;;5092481;28;20382;-76
2021/08/02 00:10:32;;;;;;;0.40;0.20;;;14.70;99.90;;;;;;5092984;28;20438;-76
2021/08/02 00:13:16;;;;;;;0.40;0.30;;;14.10;99.90;;;;;;5108104;28;20801;-76
2021/08/02 00:15:45;;;;;;;0.40;0.30;;;14.10;99.90;;;;;;5092105;28;20417;-76
2021/08/02 00:18:11;;;;;;;0.40;0.30;;;14.30;99.90;;;;;;5092740;28;20403;-75
2021/08/02 00:20:37;;;;;;;0.40;0.20;;;14.50;99.90;;;;;;5092764;28;20469;-75
2021/08/02 00:23:10;;;;;;;0.40;0.20;;;14.20;99.90;;;;;;5092378;28;20435;-76
2021/08/02 00:25:38;;;;;;;0.40;0.30;;;14.40;99.90;;;;;;5092630;28;20457;-76
2021/08/02 00:28:04;;;;;;;0.40;0.20;;;14.30;99.90;;;;;;5092224;28;20402;-76
2021/08/02 00:30:31;;;;;;;0.40;0.20;;;14.30;99.90;;;;;;5092309;28;20406;-76
2021/08/02 00:32:57;;;;;;;0.40;0.20;;;14.10;99.90;;;;;;5091915;28;20374;-76
2021/08/02 00:35:22;;;;;;;0.40;0.30;;;14.10;99.90;;;;;;5092308;28;20402;-76
2021/08/02 00:37:59;;;;;;;0.40;0.30;;;14.10;99.90;;;;;;5091802;28;20381;-76
2021/08/02 00:40:44;;;;;;;0.40;0.20;;;14.10;99.90;;;;;;5092091;28;20381;-76
2021/08/02 00:43:29;;;;;;;0.40;0.20;;;14.00;99.90;;;;;;5092085;28;20854;-75
2021/08/02 00:45:55;;;;;;;0.40;0.30;;;14.00;99.90;;;;;;5091932;28;20711;-75
2021/08/02 00:48:29;;;;;;;0.40;0.30;;;13.90;99.90;;;;;;5091871;28;20893;-74
2021/08/02 00:51:00;;;;;;;0.40;0.20;;;13.80;99.90;;;;;;5073402;28;20394;-75
2021/08/02 00:53:27;;;;;;;0.40;0.30;;;14.00;99.90;;;;;;5091824;28;20381;-75
2021/08/02 00:55:56;;;;;;;0.40;0.30;;;13.80;99.90;;;;;;5091171;28;20414;-75
2021/08/02 00:58:24;;;;;;;0.40;0.20;;;13.70;99.90;;;;;;5092085;28;20374;-75
2021/08/02 01:00:51;;;;;;;0.40;0.30;;;14.20;99.90;;;;;;5091055;28;20873;-75
2021/08/02 01:03:19;;;;;;;0.40;0.30;;;13.80;99.90;;;;;;5091927;28;20693;-77
2021/08/02 01:05:48;;;;;;;0.40;0.30;;;13.80;99.90;;;;;;5091293;28;20496;-75
2021/08/02 01:08:20;;;;;;;0.40;0.30;;;13.80;99.90;;;;;;5091617;28;20443;-74
2021/08/02 01:10:50;;;;;;;0.40;0.30;;;14.00;99.90;;;;;;5091012;28;20431;-74
2021/08/02 01:13:17;;;;;;;0.40;0.20;;;14.10;99.90;;;;;;5091741;28;20382;-77
2021/08/02 01:15:49;;;;;;;0.40;0.20;;;13.80;99.90;;;;;;5091002;28;20418;-75
2021/08/02 01:18:17;;;;;;;0.40;0.20;;;14.00;99.90;;;;;;5091613;28;20389;-75
2021/08/02 01:20:47;;;;;;;0.40;0.30;;;13.90;99.90;;;;;;5090766;28;20814;-74
2021/08/02 01:23:14;;;;;;;0.40;0.20;;;13.70;99.90;;;;;;5091678;28;20381;-74
2021/08/02 01:25:40;;;;;;;0.40;0.30;;;14.60;99.90;;;;;;5091445;28;20390;-74
2021/08/02 01:28:14;;;;;;;0.40;0.20;;;13.60;99.90;;;;;;5090767;28;20472;-74
2021/08/02 01:30:46;;;;;;;0.40;0.30;;;13.90;99.90;;;;;;5073249;28;20782;-74
2021/08/02 01:33:13;;;;;;;0.40;0.20;;;13.50;99.90;;;;;;5091507;28;20409;-74
2021/08/02 01:35:40;;;;;;;0.40;0.30;;;13.50;99.90;;;;;;5091066;28;20398;-74
2021/08/02 01:38:06;;;;;;;0.40;0.20;;;13.50;99.90;;;;;;5090596;28;20370;-75
2021/08/02 01:40:32;;;;;;;0.40;0.20;;;13.50;99.90;;;;;;5073074;28;20378;-75
2021/08/02 01:43:01;;;;;;;0.40;0.30;;;13.20;99.90;;;;;;5090658;28;20374;-75
2021/08/02 01:45:27;;;;;;;0.40;0.20;;;13.50;99.90;;;;;;5091327;28;20382;-74
2021/08/02 01:48:09;;;;;;;0.40;0.30;;;13.20;99.90;;;;;;5090462;28;20388;-74
2021/08/02 01:50:56;;;;;;;0.40;0.30;;;13.30;99.90;;;;;;5091314;28;20412;-74
2021/08/02 01:53:41;;;;;;;0.40;0.30;;;13.30;99.90;;;;;;5091280;28;20389;-74
2021/08/02 01:56:19;;;;;;;0.40;0.30;;;13.30;99.90;;;;;;5090774;28;20423;-75
2021/08/02 01:58:55;;;;;;;0.40;0.20;;;13.30;99.90;;;;;;5090632;28;20424;-75
2021/08/02 02:01:23;;;;;;;0.40;0.20;;;13.20;99.90;;;;;;5091161;28;20786;-75
2021/08/02 02:03:50;;;;;;;0.40;0.30;;;13.40;99.90;;;;;;5090931;28;20874;-76
2021/08/02 02:06:17;;;;;;;0.40;0.30;;;13.10;99.90;;;;;;5095232;28;20409;-75
2021/08/02 02:08:58;;;;;;;0.40;0.30;;;13.20;99.90;;;;;;5095011;28;20371;-75
2021/08/02 02:11:25;;;;;;;0.40;0.30;;;13.20;99.90;;;;;;5094969;28;20427;-75
2021/08/02 02:13:55;;;;;;;0.40;0.20;;;13.50;99.90;;;;;;5094237;28;20385;-75
2021/08/02 02:16:21;;;;;;;0.40;0.30;;;13.20;99.90;;;;;;5094853;28;20374;-74
2021/08/02 02:18:53;;;;;;;0.40;0.30;;;13.00;99.90;;;;;;5094244;28;20704;-74
2021/08/02 02:21:23;;;;;;;0.40;0.20;;;13.00;99.90;;;;;;5095099;28;20432;-74
2021/08/02 02:23:48;;;;;;;0.40;0.30;;;13.20;99.90;;;;;;5094356;28;20386;-78
2021/08/02 02:26:15;;;;;;;0.40;0.20;;;13.10;99.90;;;;;;5076668;28;20782;-78
2021/08/02 02:28:41;;;;;;;0.40;0.30;;;12.80;99.90;;;;;;5094948;28;20471;-77
2021/08/02 02:31:09;;;;;;;0.40;0.20;;;13.10;99.90;;;;;;5094259;28;20414;-75
2021/08/02 02:33:35;;;;;;;0.40;0.30;;;12.90;99.90;;;;;;5110565;28;20691;-77
2021/08/02 02:36:03;;;;;;;0.40;0.20;;;13.00;99.90;;;;;;5094255;28;20381;-77
2021/08/02 02:38:30;;;;;;;0.40;0.30;;;13.00;99.90;;;;;;5094578;28;20401;-74
2021/08/02 02:40:56;;;;;;;0.40;0.20;;;12.80;99.90;;;;;;5094208;28;20386;-77
2021/08/02 02:43:23;;;;;;;0.40;0.30;;;12.90;99.90;;;;;;5094329;28;20501;-77
2021/08/02 02:45:50;;;;;;;0.40;0.30;;;12.70;99.90;;;;;;5093997;28;20467;-74
2021/08/02 02:48:17;;;;;;;0.40;0.30;;;12.90;99.90;;;;;;5094392;28;20386;-78
2021/08/02 02:50:46;;;;;;;0.40;0.20;;;12.60;99.90;;;;;;5094528;28;20378;-77
2021/08/02 02:53:14;;;;;;;0.40;0.20;;;12.60;99.90;;;;;;5094712;28;20386;-77
2021/08/02 02:55:42;;;;;;;0.40;0.20;;;12.90;99.90;;;;;;5094227;28;20429;-76
2021/08/02 02:58:09;;;;;;;0.40;0.20;;;12.70;99.90;;;;;;5093661;28;20378;-74
2021/08/02 03:00:36;;;;;;;0.40;0.30;;;13.20;99.90;;;;;;5094294;28;20466;-74
2021/08/02 03:03:03;;;;;;;0.40;0.20;;;12.70;99.90;;;;;;5093535;28;20382;-76
2021/08/02 03:05:31;;;;;;;0.40;0.20;;;12.80;99.90;;;;;;5094337;28;20397;-76
2021/08/02 03:07:59;;;;;;;0.40;0.30;;;12.80;99.90;;;;;;5093566;28;20703;-76
2021/08/02 03:10:26;;;;;;;0.40;0.20;;;12.70;99.90;;;;;;5094143;28;20378;-76
2021/08/02 03:12:53;;;;;;;0.40;0.28;;;12.60;99.90;;;;;;5093429;28;20378;-76
2021/08/02 03:15:19;;;;;;;0.40;0.20;;;13.00;99.90;;;;;;5092676;28;20489;-76
2021/08/02 03:17:46;;;;;;;0.40;0.20;;;12.80;99.90;;;;;;5093861;28;20386;-76
2021/08/02 03:20:13;;;;;;;0.40;0.20;;;12.60;99.90;;;;;;5093329;28;20421;-76
2021/08/02 03:22:44;;;;;;;0.40;0.20;;;12.60;99.90;;;;;;5075317;28;20393;-76
2021/08/02 03:25:34;;;;;;;0.40;0.20;;;13.00;99.90;;;;;;5093030;28;20382;-76
2021/08/02 03:28:12;;;;;;;0.40;0.20;;;12.70;99.90;;;;;;5093065;28;20413;-76
2021/08/02 03:30:39;;;;;;;0.40;0.30;;;12.70;99.90;;;;;;5093924;28;20862;-76
2021/08/02 03:33:12;;;;;;;0.40;0.30;;;13.00;99.90;;;;;;5092847;28;20453;-76
2021/08/02 03:35:40;;;;;;;0.40;0.30;;;12.60;99.90;;;;;;5075610;28;20455;-76
2021/08/02 03:38:07;;;;;;;0.40;0.20;;;12.30;99.90;;;;;;5092639;28;20416;-76
2021/08/02 03:40:34;;;;;;;0.40;0.30;;;12.70;99.90;;;;;;5093673;28;20393;-76
2021/08/02 03:43:00;;;;;;;0.40;0.30;;;12.60;99.90;;;;;;5092552;28;20722;-76
2021/08/02 03:45:27;;;;;;;0.40;0.30;;;12.70;99.90;;;;;;5093514;28;20382;-76
2021/08/02 03:47:52;;;;;;;0.40;0.30;;;12.50;99.90;;;;;;5092604;28;20394;-77
2021/08/02 03:50:18;;;;;;;0.40;0.22;;;12.40;99.90;;;;;;5093310;28;20389;-76
2021/08/02 03:52:46;;;;;;;0.40;0.28;;;12.90;99.90;;;;;;5093239;28;20438;-76
2021/08/02 03:55:14;;;;;;;0.40;0.20;;;12.40;99.90;;;;;;5092538;28;20751;-76
2021/08/02 03:57:40;;;;;;;0.40;0.20;;;12.70;99.90;;;;;;5074921;28;20451;-76
2021/08/02 04:00:06;;;;;;;0.40;0.30;;;12.20;99.90;;;;;;5092635;28;20842;-76
2021/08/02 04:02:32;;;;;;;0.40;0.30;;;12.50;99.90;;;;;;5093359;28;20382;-76
2021/08/02 04:04:58;;;;;;;0.40;0.20;;;12.90;99.90;;;;;;5092634;28;20514;-77
2021/08/02 04:07:24;;;;;;;0.40;0.20;;;12.40;99.90;;;;;;5093052;28;20385;-76
2021/08/02 04:09:49;;;;;;;0.40;0.30;;;12.70;99.90;;;;;;5093015;28;20402;-76
2021/08/02 04:12:15;;;;;;;0.40;0.20;;;12.40;99.90;;;;;;5092120;28;20474;-76
2021/08/02 04:14:40;;;;;;;0.40;0.30;;;12.90;99.90;;;;;;5092981;28;20441;-76
2021/08/02 04:17:06;;;;;;;0.40;0.30;;;12.30;99.90;;;;;;5092211;28;20389;-77
2021/08/02 04:19:32;;;;;;;0.40;0.20;;;12.60;99.90;;;;;;5093079;28;20433;-77
2021/08/02 04:21:59;;;;;;;0.40;0.30;;;12.10;99.90;;;;;;5092506;28;20393;-76
2021/08/02 04:24:26;;;;;;;0.40;0.20;;;12.50;99.90;;;;;;5092758;28;20390;-76
2021/08/02 04:26:52;;;;;;;0.40;0.30;;;12.10;99.90;;;;;;5092018;28;20915;-77
2021/08/02 04:29:17;;;;;;;0.40;0.20;;;12.30;99.90;;;;;;5074233;28;20420;-77
2021/08/02 04:31:43;;;;;;;0.40;0.20;;;12.40;99.90;;;;;;5092928;28;20421;-76
2021/08/02 04:34:09;;;;;;;0.40;0.30;;;12.70;99.90;;;;;;5091898;28;20406;-76
2021/08/02 04:36:34;;;;;;;0.40;0.20;;;12.30;99.90;;;;;;5092566;28;20494;-76
2021/08/02 04:39:01;;;;;;;0.40;0.20;;;12.30;99.90;;;;;;5073884;28;20417;-77
2021/08/02 04:41:26;;;;;;;0.40;0.30;;;12.10;99.90;;;;;;5092175;28;20716;-77
2021/08/02 04:43:52;;;;;;;0.40;0.30;;;12.10;99.90;;;;;;5092086;28;20509;-77
2021/08/02 04:46:18;;;;;;;0.40;0.20;;;12.10;99.90;;;;;;5091804;28;20899;-77
2021/08/02 04:48:44;;;;;;;0.40;0.20;;;12.30;99.90;;;;;;5092395;28;20877;-76
2021/08/02 04:51:10;;;;;;;0.40;0.30;;;12.10;99.90;;;;;;5091751;28;20870;-74
2021/08/02 04:53:35;;;;;;;0.40;0.20;;;12.30;99.90;;;;;;5092215;28;20864;-76
2021/08/02 04:56:01;;;;;;;0.40;0.30;;;12.70;99.90;;;;;;5091518;28;20793;-77
2021/08/02 04:58:27;;;;;;;0.40;0.20;;;12.20;99.90;;;;;;5107747;28;20421;-76
2021/08/02 05:00:52;;;;;;;0.40;0.30;;;12.50;99.90;;;;;;5092210;28;20375;-76
2021/08/02 05:03:18;;;;;;;0.40;0.30;;;12.60;99.90;;;;;;5073183;28;20425;-77
2021/08/02 05:05:44;;;;;;;0.40;0.25;;;12.40;99.90;;;;;;5091715;28;20386;-77
2021/08/02 05:08:09;;;;;;;0.40;0.20;;;12.10;99.90;;;;;;5091280;28;20386;-77
2021/08/02 05:10:35;;;;;;;0.40;0.30;;;12.80;99.90;;;;;;5091896;28;20395;-77
2021/08/02 05:13:01;;;;;;;0.40;0.30;;;12.50;99.90;;;;;;5091243;28;20731;-77
2021/08/02 05:15:26;;;;;;;0.40;0.20;;;12.50;99.90;;;;;;5091770;28;20439;-77
2021/08/02 05:17:52;;;;;;;0.40;0.30;;;12.40;99.90;;;;;;5091832;28;20385;-75
2021/08/02 05:20:19;;;;;;;0.40;0.20;;;12.90;99.90;;;;;;5091065;28;20405;-75
2021/08/02 05:22:45;;;;;;;0.40;0.20;;;12.70;99.90;;;;;;5091735;28;20389;-74
2021/08/02 05:25:12;;;;;;;0.40;0.20;;;12.80;99.90;;;;;;5091095;28;20385;-74
2021/08/02 05:27:38;;;;;;;0.40;0.20;;;12.70;99.90;;;;;;5091232;28;20391;-75
2021/08/02 05:30:04;;;;;;;0.40;0.20;;;13.00;99.90;;;;;;5090987;28;20381;-74
2021/08/02 05:32:30;;;;;;;0.40;0.20;;;12.90;99.90;;;;;;5091569;28;20397;-75
2021/08/02 05:34:56;;;;;;;0.40;0.20;;;13.60;99.90;;;;;;5091119;28;20878;-75
2021/08/02 05:37:21;;;;;;;0.40;0.30;;;13.30;99.90;;;;;;5091755;28;20386;-78
2021/08/02 05:39:47;;;;;;;0.40;0.30;;;13.40;99.90;;;;;;5090453;28;20378;-75
2021/08/02 05:42:13;;;;;;;0.40;0.30;;;13.10;99.90;;;;;;5090764;28;20386;-75
2021/08/02 05:44:38;;;;;;;0.40;0.23;;;13.40;99.90;;;;;;5091373;28;20370;-75
2021/08/02 05:47:06;;;;;;;0.40;0.20;;;13.40;99.90;;;;;;5091120;28;20412;-74
2021/08/02 05:49:32;;;;;;;0.40;0.20;;;13.30;99.90;;;;;;5091447;28;20405;-75
2021/08/02 05:52:00;;;;;;;0.40;0.20;;;13.40;99.90;;;;;;5090774;28;20394;-75
2021/08/02 05:54:25;;;;;;;0.40;0.30;;;13.20;99.90;;;;;;5091194;28;20870;-75
2021/08/02 05:56:51;;;;;;;0.40;0.30;;;13.60;99.90;;;;;;5090983;28;20374;-75
2021/08/02 05:59:17;;;;;;;0.40;0.30;;;13.30;99.90;;;;;;5090416;28;20398;-75
2021/08/02 06:01:42;;;;;;;0.40;0.20;;;13.40;99.90;;;;;;5073391;28;20408;-75
2021/08/02 06:04:08;;;;;;;0.40;0.20;;;13.40;99.90;;;;;;5090616;28;20382;-75
2021/08/02 06:06:33;;;;;;;0.40;0.20;;;13.40;99.90;;;;;;5090958;28;20394;-76
2021/08/02 06:08:59;;;;;;;0.40;0.30;;;13.30;99.90;;;;;;5090462;28;20370;-75
2021/08/02 06:11:25;;;;;;;0.40;0.30;;;13.40;99.90;;;;;;5091268;28;20378;-75
2021/08/02 06:13:51;;;;;;;0.40;0.20;;;13.50;99.90;;;;;;5090769;28;20374;-75
2021/08/02 06:16:20;;;;;;;0.40;0.20;;;13.90;99.90;;;;;;5090498;28;20389;-75
2021/08/02 06:18:47;;;;;;;0.40;0.30;;;14.00;99.90;;;;;;5091240;28;20458;-74
2021/08/02 06:21:13;;;;;;;0.40;0.20;;;14.30;99.90;;;;;;5090429;28;20415;-76
2021/08/02 06:23:38;;;;;;;0.40;0.28;;;14.30;99.90;;;;;;5091258;28;20383;-76
2021/08/02 06:26:04;;;;;;;0.40;0.20;;;14.50;99.90;;;;;;5090446;28;20419;-76
2021/08/02 06:28:29;;;;;;;0.40;0.20;;;14.30;99.90;;;;;;5090472;28;20402;-76
2021/08/02 06:30:55;;;;;;;0.40;0.20;;;14.50;99.90;;;;;;5091023;28;20374;-76
2021/08/02 06:33:23;;;;;;;0.40;0.20;;;14.40;99.90;;;;;;5090303;28;20381;-76
2021/08/02 06:35:49;;;;;;;0.40;0.20;;;14.60;99.90;;;;;;5090730;28;20405;-77
2021/08/02 06:38:14;;;;;;;0.40;0.20;;;14.90;99.90;;;;;;5090115;28;20424;-76
2021/08/02 06:40:40;;;;;;;0.40;0.30;;;14.80;99.90;;;;;;5090842;28;20378;-76
2021/08/02 06:43:06;;;;;;;0.40;0.30;;;15.10;99.90;;;;;;5090052;28;20405;-77
2021/08/02 06:45:31;;;;;;;0.40;0.30;;;15.00;99.90;;;;;;5090500;28;20371;-77
2021/08/02 06:47:57;;;;;;;0.40;0.20;;;15.00;99.90;;;;;;5106559;28;20424;-77
2021/08/02 06:50:24;;;;;;;0.40;0.20;;;15.10;99.90;;;;;;5091694;28;20389;-76
2021/08/02 06:52:51;;;;;;;0.40;0.20;;;15.10;99.90;;;;;;5094748;28;20692;-78
2021/08/02 06:55:16;;;;;;;0.40;0.30;;;15.20;99.90;;;;;;5093789;28;20413;-77
2021/08/02 06:57:42;;;;;;;0.40;0.20;;;15.20;99.90;;;;;;5094155;28;20863;-78
2021/08/02 07:00:08;;;;;;;0.40;0.30;;;15.20;99.90;;;;;;5093842;28;20382;-77
2021/08/02 07:02:34;;;;;;;0.40;0.20;;;15.40;99.90;;;;;;5094873;28;20382;-77
2021/08/02 07:05:00;;;;;;;0.40;0.30;;;15.50;99.90;;;;;;5094411;28;20375;-77
2021/08/02 07:07:25;;;;;;;0.40;0.30;;;15.70;99.90;;;;;;5093774;28;20378;-78
2021/08/02 07:09:51;;;;;;;0.40;0.30;;;15.60;99.90;;;;;;5093920;28;20386;-78
2021/08/02 07:12:16;;;;;;;0.40;0.20;;;16.00;99.90;;;;;;5093673;28;20374;-78
2021/08/02 07:14:42;;;;;;;0.40;0.30;;;15.90;99.90;;;;;;5093832;28;20410;-78
2021/08/02 07:17:08;;;;;;;0.40;0.25;;;15.90;99.90;;;;;;5093593;28;20386;-78
2021/08/02 07:19:33;;;;;;;0.40;0.20;;;15.90;99.90;;;;;;5094392;28;20459;-77
2021/08/02 07:21:59;;;;;;;0.40;0.30;;;15.90;99.90;;;;;;5094084;28;20408;-75
2021/08/02 07:24:25;;;;;;;0.40;0.30;;;15.90;99.90;;;;;;5093082;28;20881;-78
2021/08/02 07:26:50;;;;;;;0.40;0.30;;;15.80;99.90;;;;;;5093863;28;20378;-77
2021/08/02 07:29:16;;;;;;;0.40;0.30;;;15.90;99.90;;;;;;5093535;28;20409;-77
2021/08/02 07:31:42;;;;;;;0.40;0.30;;;15.80;99.90;;;;;;5093440;28;20374;-77
2021/08/02 07:34:07;;;;;;;0.40;0.30;;;15.90;99.90;;;;;;5093077;28;20420;-77
2021/08/02 07:36:33;;;;;;;0.40;0.30;;;15.80;99.90;;;;;;5075531;28;20432;-77
2021/08/02 07:38:59;;;;;;;0.40;0.30;;;15.80;99.90;;;;;;5093513;28;20846;-77
2021/08/02 07:41:26;;;;;;;0.40;0.20;;;15.70;99.90;;;;;;5092961;28;20378;-77
2021/08/02 07:43:51;;;;;;;0.40;0.30;;;16.00;99.90;;;;;;5093707;28;20460;-77
2021/08/02 07:46:17;;;;;;;0.40;0.30;;;15.90;99.90;;;;;;5074846;28;20608;-78
2021/08/02 07:48:43;;;;;;;0.40;0.30;;;16.00;99.90;;;;;;5093233;28;20397;-77
2021/08/02 07:51:08;;;;;;;0.40;0.30;;;16.10;99.90;;;;;;5092723;28;20379;-77
2021/08/02 07:53:34;;;;;;;0.40;0.30;;;16.20;99.90;;;;;;5093456;28;20374;-78
2021/08/02 07:56:00;;;;;;;0.40;0.30;;;16.30;99.90;;;;;;5093100;28;20500;-76
2021/08/02 07:58:25;;;;;;;0.40;0.30;;;16.40;99.90;;;;;;5092366;28;20388;-75
2021/08/02 08:00:51;;;;;;;0.40;0.30;;;16.40;99.90;;;;;;5092811;28;20378;-76
2021/08/02 08:03:19;;;;;;;0.40;0.20;;;16.50;99.90;;;;;;5091951;28;20428;-75
2021/08/02 08:05:45;;;;;;;0.40;0.30;;;16.60;99.90;;;;;;5093251;28;20409;-76
2021/08/02 08:08:11;;;;;;;0.40;0.30;;;16.70;99.90;;;;;;5092480;28;20370;-77
2021/08/02 08:10:37;;;;;;;0.40;0.30;;;16.80;99.90;;;;;;5093066;28;20370;-76
2021/08/02 08:13:02;;;;;;;0.40;0.20;;;16.90;99.90;;;;;;5093187;28;20381;-76
2021/08/02 08:15:28;;;;;;;0.40;0.30;;;17.10;99.90;;;;;;5092158;28;20932;-77
2021/08/02 08:17:54;;;;;;;0.40;0.30;;;17.30;99.90;;;;;;5093107;28;20486;-76
2021/08/02 08:20:23;;;;;;;0.40;0.20;;;17.40;99.90;;;;;;5074124;28;20872;-76
2021/08/02 08:22:49;;;;;;;0.40;0.20;;;17.30;99.90;;;;;;5092972;28;20397;-78
2021/08/02 08:25:15;;;;;;;0.40;0.20;;;17.50;99.90;;;;;;5092057;28;20465;-77
2021/08/02 08:27:41;;;;;;;0.40;0.20;;;17.60;99.90;;;;;;5092449;28;20424;-77
2021/08/02 08:30:09;;;;;;;0.40;0.20;;;17.60;99.90;;;;;;5092037;28;20909;-77
2021/08/02 08:32:35;;;;;;;0.40;0.30;;;17.80;99.90;;;;;;5092809;28;20378;-77
2021/08/02 08:35:01;;;;;;;0.40;0.20;;;17.80;99.90;;;;;;5092566;28;20398;-77
2021/08/02 08:37:27;;;;;;;0.40;0.30;;;18.00;99.90;;;;;;5091915;28;20735;-77
2021/08/02 08:39:53;;;;;;;0.40;0.20;;;17.90;99.90;;;;;;5108213;28;20443;-78
2021/08/02 08:42:18;;;;;;;0.40;0.20;;;17.80;99.90;;;;;;5091832;28;20899;-77
2021/08/02 08:44:44;;;;;;;0.40;0.20;;;17.70;99.90;;;;;;5092177;28;20405;-77
2021/08/02 08:47:11;;;;;;;0.40;0.20;;;17.70;99.90;;;;;;5091729;28;20393;-77
2021/08/02 08:49:38;;;;;;;0.40;0.30;;;17.80;99.90;;;;;;5092675;28;20421;-77
2021/08/02 08:52:04;;;;;;;0.40;0.30;;;18.00;99.90;;;;;;5092306;28;20418;-77
2021/08/02 08:54:34;;;;;;;0.40;0.30;;;18.10;99.90;;;;;;5091535;28;20402;-77
2021/08/02 08:57:00;;;;;;;0.40;0.30;;;18.20;99.90;;;;;;5091867;28;20378;-78
2021/08/02 08:59:25;;;;;;;0.40;0.20;;;18.40;99.90;;;;;;5091353;28;20423;-78
2021/08/02 09:02:04;;;;;;;0.40;0.30;;;18.20;99.90;;;;;;5092040;28;20393;-77
2021/08/02 09:04:31;;;;;;;0.40;0.30;;;18.20;99.90;;;;;;5091506;28;20382;-77
2021/08/02 09:07:04;;;;;;;0.40;0.20;;;18.30;99.90;;;;;;5091734;28;20842;-78
2021/08/02 09:09:31;;;;;;;0.40;0.28;;;18.30;99.90;;;;;;5091402;28;20621;-78
2021/08/02 09:12:16;;;;;;;0.40;0.30;;;18.40;99.90;;;;;;5091626;28;20754;-79
2021/08/02 09:14:56;;;;;;;0.40;0.20;;;18.60;99.90;;;;;;5091826;28;20405;-78
2021/08/02 09:17:33;;;;;;;0.40;0.20;;;18.40;99.90;;;;;;5091085;28;20398;-78
2021/08/02 09:20:00;;;;;;;0.40;0.20;;;18.40;99.90;;;;;;5091844;28;20394;-78
2021/08/02 09:22:35;;;;;;;0.40;0.30;;;18.40;99.90;;;;;;5091092;28;20374;-79
2021/08/02 09:25:21;;;;;;;0.40;0.30;;;18.40;99.90;;;;;;5091674;28;20894;-78
2021/08/02 09:27:48;;;;;;;0.40;0.30;;;18.80;99.90;;;;;;5091554;28;20402;-76
2021/08/02 09:30:27;;;;;;;0.40;0.30;;;19.00;99.90;;;;;;5090990;28;20441;-76
2021/08/02 09:32:52;;;;;;;0.40;0.30;;;19.20;99.90;;;;;;5091515;28;20401;-77
2021/08/02 09:35:36;;;;;;;0.40;0.30;;;19.00;99.90;;;;;;5090638;28;20890;-77
2021/08/02 09:38:10;;;;;;;0.40;0.30;;;19.00;99.90;;;;;;5091410;28;20728;-77
2021/08/02 09:40:45;;;;;;;0.40;0.30;;;19.00;99.90;;;;;;5073743;28;20707;-76
2021/08/02 09:43:21;;;;;;;0.40;0.20;;;19.20;99.90;;;;;;5091456;28;20893;-76
2021/08/02 09:45:52;;;;;;;0.40;0.30;;;19.30;99.90;;;;;;5073285;28;20446;-76
2021/08/02 09:48:19;;;;;;;0.40;0.30;;;19.10;99.90;;;;;;5090675;28;20856;-75
2021/08/02 09:50:47;;;;;;;0.40;0.22;;;19.40;99.90;;;;;;5091832;28;20390;-76
2021/08/02 09:53:18;;;;;;;0.40;0.20;;;19.20;99.90;;;;;;5090653;28;20382;-74
2021/08/02 09:55:45;;;;;;;0.40;0.30;;;19.40;99.90;;;;;;5091555;28;20417;-76
2021/08/02 09:58:14;;;;;;;0.40;0.30;;;19.50;99.90;;;;;;5091267;28;20443;-76
2021/08/02 10:00:41;;;;;;;0.40;0.20;;;19.40;99.90;;;;;;5091505;28;20757;-76
2021/08/02 10:03:07;;;;;;;0.40;0.30;;;19.50;99.90;;;;;;5091586;28;20378;-75
2021/08/02 10:05:37;;;;;;;0.40;0.20;;;19.50;99.90;;;;;;5090676;28;20645;-76
2021/08/02 10:08:04;;;;;;;0.40;0.20;;;19.80;99.90;;;;;;5091102;28;20380;-76
2021/08/02 10:10:30;;;;;;;0.40;0.30;;;20.00;99.90;;;;;;5090578;28;20384;-75
2021/08/02 10:12:56;;;;;;;0.40;0.30;;;20.10;99.90;;;;;;5090858;28;20381;-75
2021/08/02 10:15:27;;;;;;;0.40;0.30;;;20.00;99.90;;;;;;5090475;28;20413;-78
2021/08/02 10:17:56;;;;;;;0.40;0.20;;;20.10;99.90;;;;;;5091111;28;20746;-76
2021/08/02 10:20:33;;;;;;;0.40;0.30;;;20.00;99.90;;;;;;5090552;28;20374;-75
2021/08/02 10:23:02;;;;;;;0.40;0.30;;;19.90;99.90;;;;;;5090875;28;20389;-77
2021/08/02 10:25:32;;;;;;;0.40;0.20;;;20.20;99.90;;;;;;5092347;28;20385;-77
2021/08/02 10:28:07;;;;;;;0.40;0.28;;;20.20;99.90;;;;;;5094812;28;20475;-75
2021/08/02 10:30:33;;;;;;;0.40;0.30;;;20.30;99.90;;;;;;5094438;28;20397;-75
2021/08/02 10:32:59;;;;;;;0.40;0.20;;;20.10;99.90;;;;;;5094908;28;20373;-76
2021/08/02 10:35:32;;;;;;;0.40;0.30;;;20.10;99.90;;;;;;5094236;28;20447;-76
2021/08/02 10:38:03;;;;;;;0.40;0.30;;;20.40;99.90;;;;;;5094522;28;20374;-76
2021/08/02 10:40:29;;;;;;;0.40;0.20;;;20.40;99.90;;;;;;5094252;28;20708;-77
2021/08/02 10:42:55;;;;;;;0.40;0.20;;;20.50;99.90;;;;;;5094476;28;20447;-79
2021/08/02 10:45:31;;;;;;;0.40;0.30;;;20.60;99.90;;;;;;5094103;28;20435;-77
2021/08/02 10:47:58;;;;;;;0.40;0.30;;;20.60;99.90;;;;;;5076251;28;20769;-77
2021/08/02 10:50:30;;;;;;;0.40;0.20;;;20.60;99.90;;;;;;5093929;28;20386;-77
2021/08/02 10:52:56;;;;;;;0.40;0.30;;;20.90;99.90;;;;;;5094596;28;20386;-75
2021/08/02 10:55:25;;;;;;;0.40;0.20;;;20.80;99.90;;;;;;5093953;28;20409;-76
2021/08/02 10:58:01;;;;;;;0.40;0.30;;;20.50;99.90;;;;;;5094380;28;20374;-76
2021/08/02 11:00:27;;;;;;;0.40;0.30;;;20.80;99.40;;;;;;5093922;28;20401;-75
2021/08/02 11:02:55;;;;;;;0.40;0.30;;;20.60;99.90;;;;;;5094374;28;20503;-76
2021/08/02 11:05:22;;;;;;;0.40;0.30;;;20.70;99.90;;;;;;5093436;28;20870;-74
2021/08/02 11:07:48;;;;;;;0.40;0.20;;;20.70;99.90;;;;;;5094261;28;20730;-77
2021/08/02 11:10:15;;;;;;;0.40;0.30;;;20.90;99.30;;;;;;5094313;28;20382;-75
2021/08/02 11:12:46;;;;;;;0.40;0.30;;;21.20;98.30;;;;;;5093509;28;20418;-76
2021/08/02 11:15:12;;;;;;;0.40;0.30;;;21.20;98.50;;;;;;5094136;28;20398;-78
2021/08/02 11:17:49;;;;;;;0.40;0.30;;;21.00;97.70;;;;;;5093068;28;20386;-78
2021/08/02 11:20:15;;;;;;;0.40;0.20;;;21.10;97.10;;;;;;5076087;28;20742;-76
2021/08/02 11:23:07;;;;;;;0.40;0.20;;;21.40;96.50;;;;;;5093050;28;20411;-75
2021/08/02 11:25:33;;;;;;;0.40;0.22;;;21.40;99.90;;;;;;5088644;28;20398;-76
2021/08/02 11:28:00;;;;;;;0.40;0.25;;;20.90;95.50;;;;;;5093355;28;20927;-76
2021/08/02 11:30:27;;;;;;;0.40;0.28;;;21.10;96.10;;;;;;5093323;28;20378;-75
2021/08/02 11:32:53;;;;;;;0.40;0.30;;;21.40;97.10;;;;;;5093820;28;20375;-76
2021/08/02 11:35:19;;;;;;;0.40;0.30;;;21.50;97.30;;;;;;5093197;28;20463;-75
2021/08/02 11:37:51;;;;;;;0.40;0.20;;;21.60;99.90;;;;;;5092530;28;20419;-76
2021/08/02 11:40:18;;;;;;;0.40;0.20;;;21.40;96.10;;;;;;5093694;28;20469;-76
2021/08/02 11:42:47;;;;;;;0.40;0.30;;;21.50;97.30;;;;;;5093493;28;20394;-78
2021/08/02 11:45:15;;;;;;;0.40;0.30;;;21.90;93.10;;;;;;5093610;28;20465;-77
2021/08/02 11:47:46;;;;;;;0.40;0.20;;;22.20;93.70;;;;;;5092765;28;20374;-78
2021/08/02 11:50:13;;;;;;;0.40;0.20;;;22.60;92.40;;;;;;5093630;28;20398;-77
2021/08/02 11:52:39;;;;;;;0.40;0.30;;;23.00;92.70;;;;;;5092813;28;21268;-76
2021/08/02 11:55:13;;;;;;;0.40;0.30;;;22.50;92.60;;;;;;5093332;28;20433;-76
2021/08/02 11:57:40;;;;;;;0.40;0.20;;;21.60;93.50;;;;;;5092578;28;20374;-77
2021/08/02 12:00:16;;;;;;;0.40;0.30;;;21.20;95.10;;;;;;5093694;28;20486;-78
2021/08/02 12:02:44;;;;;;;0.40;0.30;;;22.00;93.50;;;;;;5092662;28;20383;-76
2021/08/02 12:05:27;;;;;;;0.40;0.22;;;22.00;94.90;;;;;;5093176;28;20392;-76
2021/08/02 12:07:54;;;;;;;0.40;0.20;;;22.00;99.70;;;;;;5093148;28;20472;-75
2021/08/02 12:10:24;;;;;;;0.40;0.30;;;22.20;97.40;;;;;;5093116;28;20423;-74
2021/08/02 12:13:05;;;;;;;0.40;0.20;;;21.90;96.00;;;;;;5092962;28;20388;-76
2021/08/02 12:15:33;;;;;;;0.40;0.30;;;21.50;95.00;;;;;;5092345;28;20405;-78
2021/08/02 12:18:02;;;;;;;0.40;0.30;;;21.50;98.90;;;;;;5092992;28;20378;-80
2021/08/02 12:20:33;;;;;;;0.40;0.30;;;21.90;99.10;;;;;;5092420;28;20390;-79
2021/08/02 12:23:04;;;;;;;0.40;0.30;;;22.30;96.20;;;;;;5092968;28;20416;-77
2021/08/02 12:25:48;;;;;;;0.40;0.30;;;22.20;93.80;;;;;;5092461;28;20414;-77
2021/08/02 12:28:14;;;;;;;0.40;0.30;;;22.50;95.80;;;;;;5092311;28;20408;-80
2021/08/02 12:30:42;;;;;;;0.40;0.20;;;22.80;97.80;;;;;;5091836;28;20924;-78
2021/08/02 12:33:10;;;;;;;0.40;0.20;;;22.40;98.00;;;;;;5092439;28;20469;-77
2021/08/02 12:35:36;;;;;;;0.40;0.30;;;22.80;97.00;;;;;;5092029;28;20459;-79
2021/08/02 12:38:05;;;;;;;0.40;0.30;;;22.30;94.70;;;;;;5092895;28;20376;-78
2021/08/02 12:40:31;;;;;;;0.50;0.30;;;22.20;94.00;;;;;;5092408;28;20381;-77
2021/08/02 12:42:57;;;;;;;0.40;0.20;;;22.70;94.80;;;;;;5092554;28;20374;-79
2021/08/02 12:45:23;;;;;;;0.40;0.20;;;22.30;96.00;;;;;;5091812;28;20374;-78
2021/08/02 12:47:50;;;;;;;0.40;0.30;;;22.30;95.30;;;;;;5092081;28;20901;-79
2021/08/02 12:50:17;;;;;;;0.40;0.30;;;22.70;94.20;;;;;;5092423;28;20459;-77
2021/08/02 12:52:48;;;;;;;0.40;0.30;;;22.80;93.50;;;;;;5091835;28;20438;-77